sensor_id;sensor_type;location;lat;lon;timestamp;pressure;altitude;pressure_sealevel;temperature;humidity
14117;BME280;7137;51.436;6.544;2023-02-13T00:02:42;103303.91;;;9.85;87.56
14117;BME280;7137;51.436;6.544;2023-02-13T00:05:44;103304.00;;;9.90;86.79
14117;BME280;7137;51.436;6.544;2023-02-13T00:08:47;103306.59;;;9.88;88.07
14117;BME280;7137;51.436;6.544;2023-02-13T00:11:48;103309.19;;;9.88;86.59
14117;BME280;7137;51.436;6.544;2023-02-13T00:14:50;103308.34;;;9.91;86.72
14117;BME280;7137;51.436;6.544;2023-02-13T00:17:51;103300.53;;;9.91;86.81
14117;BME280;7137;51.436;6.544;2023-02-13T00:20:59;103297.91;;;9.89;87.75
14117;BME280;7137;51.436;6.544;2023-02-13T00:24:03;103292.69;;;9.91;87.13
14117;BME280;7137;51.436;6.544;2023-02-13T00:27:05;103287.50;;;9.92;86.82
14117;BME280;7137;51.436;6.544;2023-02-13T00:30:08;103284.00;;;9.92;86.69
14117;BME280;7137;51.436;6.544;2023-02-13T00:33:10;103289.22;;;9.92;86.53
14117;BME280;7137;51.436;6.544;2023-02-13T00:36:12;103281.38;;;9.90;87.63
14117;BME280;7137;51.436;6.544;2023-02-13T00:39:16;103287.53;;;9.97;85.82
14117;BME280;7137;51.436;6.544;2023-02-13T00:42:19;103283.19;;;9.97;86.85
14117;BME280;7137;51.436;6.544;2023-02-13T00:45:23;103291.88;;;9.96;87.12
14117;BME280;7137;51.436;6.544;2023-02-13T00:48:25;103289.19;;;9.87;87.22
14117;BME280;7137;51.436;6.544;2023-02-13T00:51:26;103280.47;;;9.87;86.15
14117;BME280;7137;51.436;6.544;2023-02-13T00:54:29;103295.44;;;10.01;86.15
14117;BME280;7137;51.436;6.544;2023-02-13T00:57:31;103283.16;;;9.94;86.77
14117;BME280;7137;51.436;6.544;2023-02-13T01:00:33;103284.13;;;10.01;84.14
14117;BME280;7137;51.436;6.544;2023-02-13T01:03:34;103286.63;;;9.92;85.99
14117;BME280;7137;51.436;6.544;2023-02-13T01:06:36;103277.91;;;9.91;85.75
14117;BME280;7137;51.436;6.544;2023-02-13T01:09:39;103287.47;;;9.91;85.92
14117;BME280;7137;51.436;6.544;2023-02-13T01:12:41;103283.06;;;9.87;85.57
14117;BME280;7137;51.436;6.544;2023-02-13T01:15:43;103285.75;;;9.91;85.39
14117;BME280;7137;51.436;6.544;2023-02-13T01:18:45;103284.69;;;9.78;85.63
14117;BME280;7137;51.436;6.544;2023-02-13T01:21:46;103279.53;;;9.83;84.98
14117;BME280;7137;51.436;6.544;2023-02-13T01:24:50;103276.97;;;9.86;85.76
14117;BME280;7137;51.436;6.544;2023-02-13T01:27:51;103277.81;;;9.85;84.17
14117;BME280;7137;51.436;6.544;2023-02-13T01:30:53;103275.19;;;9.83;85.16
14117;BME280;7137;51.436;6.544;2023-02-13T01:33:55;103275.13;;;9.79;86.52
14117;BME280;7137;51.436;6.544;2023-02-13T01:36:58;103273.44;;;9.82;85.84
14117;BME280;7137;51.436;6.544;2023-02-13T01:40:01;103277.88;;;9.90;84.48
14117;BME280;7137;51.436;6.544;2023-02-13T01:43:07;103276.84;;;9.75;86.56
14117;BME280;7137;51.436;6.544;2023-02-13T01:46:09;103274.19;;;9.74;86.44
14117;BME280;7137;51.436;6.544;2023-02-13T01:49:14;103272.44;;;9.73;84.57
14117;BME280;7137;51.436;6.544;2023-02-13T01:52:17;103270.56;;;9.63;85.69
14117;BME280;7137;51.436;6.544;2023-02-13T01:55:21;103269.66;;;9.59;86.30
14117;BME280;7137;51.436;6.544;2023-02-13T01:58:25;103264.31;;;9.51;86.45
14117;BME280;7137;51.436;6.544;2023-02-13T02:01:30;103262.53;;;9.47;87.71
14117;BME280;7137;51.436;6.544;2023-02-13T02:04:33;103271.28;;;9.52;86.69
14117;BME280;7137;51.436;6.544;2023-02-13T02:07:37;103259.06;;;9.48;87.38
14117;BME280;7137;51.436;6.544;2023-02-13T02:10:41;103261.66;;;9.47;88.26
14117;BME280;7137;51.436;6.544;2023-02-13T02:13:44;103256.34;;;9.42;87.55
14117;BME280;7137;51.436;6.544;2023-02-13T02:16:46;103260.88;;;9.54;87.16
14117;BME280;7137;51.436;6.544;2023-02-13T02:19:53;103266.03;;;9.49;86.55
14117;BME280;7137;51.436;6.544;2023-02-13T02:23:22;103269.56;;;9.55;87.45
14117;BME280;7137;51.436;6.544;2023-02-13T02:26:45;103269.69;;;9.62;85.86
14117;BME280;7137;51.436;6.544;2023-02-13T02:33:42;103273.94;;;9.56;87.97
14117;BME280;7137;51.436;6.544;2023-02-13T02:37:01;103266.06;;;9.52;88.31
14117;BME280;7137;51.436;6.544;2023-02-13T02:40:10;103258.34;;;9.60;87.36
14117;BME280;7137;51.436;6.544;2023-02-13T02:43:25;103264.44;;;9.59;86.15
14117;BME280;7137;51.436;6.544;2023-02-13T02:46:33;103261.81;;;9.58;87.21
14117;BME280;7137;51.436;6.544;2023-02-13T02:49:40;103263.50;;;9.56;86.44
14117;BME280;7137;51.436;6.544;2023-02-13T02:53:07;103263.47;;;9.52;86.36
14117;BME280;7137;51.436;6.544;2023-02-13T02:56:17;103265.19;;;9.53;87.58
14117;BME280;7137;51.436;6.544;2023-02-13T02:59:21;103264.38;;;9.56;87.04
14117;BME280;7137;51.436;6.544;2023-02-13T03:02:42;103253.13;;;9.59;85.28
14117;BME280;7137;51.436;6.544;2023-02-13T03:06:05;103266.03;;;9.49;87.99
14117;BME280;7137;51.436;6.544;2023-02-13T03:09:17;103274.66;;;9.44;86.34
14117;BME280;7137;51.436;6.544;2023-02-13T03:12:40;103262.41;;;9.41;87.66
14117;BME280;7137;51.436;6.544;2023-02-13T03:16:02;103258.03;;;9.39;87.45
14117;BME280;7137;51.436;6.544;2023-02-13T03:19:33;103260.59;;;9.36;87.83
14117;BME280;7137;51.436;6.544;2023-02-13T03:23:04;103252.06;;;9.44;88.18
14117;BME280;7137;51.436;6.544;2023-02-13T03:26:35;103265.03;;;9.43;87.37
14117;BME280;7137;51.436;6.544;2023-02-13T03:29:56;103259.88;;;9.44;85.67
14117;BME280;7137;51.436;6.544;2023-02-13T03:33:20;103259.00;;;9.44;87.74
14117;BME280;7137;51.436;6.544;2023-02-13T03:36:32;103255.34;;;9.33;86.57
14117;BME280;7137;51.436;6.544;2023-02-13T03:40:02;103254.38;;;9.28;87.07
14117;BME280;7137;51.436;6.544;2023-02-13T03:43:10;103255.19;;;9.23;89.09
14117;BME280;7137;51.436;6.544;2023-02-13T03:46:14;103255.81;;;9.07;88.68
14117;BME280;7137;51.436;6.544;2023-02-13T03:49:20;103251.31;;;8.99;90.36
14117;BME280;7137;51.436;6.544;2023-02-13T03:52:44;103255.66;;;8.98;89.50
14117;BME280;7137;51.436;6.544;2023-02-13T03:55:50;103255.97;;;9.15;88.28
14117;BME280;7137;51.436;6.544;2023-02-13T03:59:16;103260.94;;;9.01;89.78
14117;BME280;7137;51.436;6.544;2023-02-13T04:02:21;103260.78;;;8.90;90.50
14117;BME280;7137;51.436;6.544;2023-02-13T04:05:28;103267.78;;;8.95;88.85
14117;BME280;7137;51.436;6.544;2023-02-13T04:08:31;103270.53;;;9.02;88.57
14117;BME280;7137;51.436;6.544;2023-02-13T04:11:35;103275.75;;;9.02;89.60
14117;BME280;7137;51.436;6.544;2023-02-13T04:14:42;103273.88;;;8.95;89.14
14117;BME280;7137;51.436;6.544;2023-02-13T04:17:52;103273.81;;;8.90;90.02
14117;BME280;7137;51.436;6.544;2023-02-13T04:20:54;103268.31;;;8.74;91.36
14117;BME280;7137;51.436;6.544;2023-02-13T04:23:56;103270.09;;;8.78;91.17
14117;BME280;7137;51.436;6.544;2023-02-13T04:26:59;103271.84;;;8.79;91.73
14117;BME280;7137;51.436;6.544;2023-02-13T04:30:01;103277.31;;;8.94;89.99
14117;BME280;7137;51.436;6.544;2023-02-13T04:33:02;103270.19;;;8.84;91.08
14117;BME280;7137;51.436;6.544;2023-02-13T04:36:05;103270.97;;;8.77;91.66
14117;BME280;7137;51.436;6.544;2023-02-13T04:39:06;103269.19;;;8.76;90.38
14117;BME280;7137;51.436;6.544;2023-02-13T04:42:10;103265.84;;;8.84;90.27
14117;BME280;7137;51.436;6.544;2023-02-13T04:45:12;103264.75;;;8.70;91.04
14117;BME280;7137;51.436;6.544;2023-02-13T04:48:14;103263.72;;;8.60;91.49
14117;BME280;7137;51.436;6.544;2023-02-13T04:51:15;103260.06;;;8.51;91.64
14117;BME280;7137;51.436;6.544;2023-02-13T04:54:17;103270.44;;;8.48;92.18
14117;BME280;7137;51.436;6.544;2023-02-13T04:57:20;103260.75;;;8.41;92.14
14117;BME280;7137;51.436;6.544;2023-02-13T05:00:23;103261.50;;;8.35;92.54
14117;BME280;7137;51.436;6.544;2023-02-13T05:03:25;103254.56;;;8.34;92.44
14117;BME280;7137;51.436;6.544;2023-02-13T05:06:26;103246.66;;;8.31;92.52
14117;BME280;7137;51.436;6.544;2023-02-13T05:09:28;103243.94;;;8.26;93.18
14117;BME280;7137;51.436;6.544;2023-02-13T05:12:31;103243.81;;;8.19;93.00
14117;BME280;7137;51.436;6.544;2023-02-13T05:15:33;103240.34;;;8.20;93.59
14117;BME280;7137;51.436;6.544;2023-02-13T05:18:34;103249.66;;;8.07;94.30
14117;BME280;7137;51.436;6.544;2023-02-13T05:21:36;103243.34;;;7.96;94.55
14117;BME280;7137;51.436;6.544;2023-02-13T05:24:55;103246.78;;;7.95;93.76
14117;BME280;7137;51.436;6.544;2023-02-13T05:27:58;103249.44;;;7.98;94.55
14117;BME280;7137;51.436;6.544;2023-02-13T05:30:59;103255.44;;;7.94;94.08
14117;BME280;7137;51.436;6.544;2023-02-13T05:34:01;103248.22;;;7.81;95.42
14117;BME280;7137;51.436;6.544;2023-02-13T05:37:02;103249.97;;;7.80;94.63
14117;BME280;7137;51.436;6.544;2023-02-13T05:40:05;103243.03;;;7.81;95.16
14117;BME280;7137;51.436;6.544;2023-02-13T05:43:08;103241.19;;;7.75;95.19
14117;BME280;7137;51.436;6.544;2023-02-13T05:46:10;103243.44;;;7.60;95.71
14117;BME280;7137;51.436;6.544;2023-02-13T05:49:13;103245.75;;;7.46;97.38
14117;BME280;7137;51.436;6.544;2023-02-13T05:52:16;103237.19;;;7.50;96.64
14117;BME280;7137;51.436;6.544;2023-02-13T05:55:17;103239.53;;;7.39;96.44
14117;BME280;7137;51.436;6.544;2023-02-13T05:58:20;103234.91;;;7.28;98.23
14117;BME280;7137;51.436;6.544;2023-02-13T06:01:23;103233.13;;;7.25;98.11
14117;BME280;7137;51.436;6.544;2023-02-13T06:04:25;103232.19;;;7.22;97.94
14117;BME280;7137;51.436;6.544;2023-02-13T06:07:26;103234.56;;;7.12;97.74
14117;BME280;7137;51.436;6.544;2023-02-13T06:10:28;103231.88;;;7.08;98.06
14117;BME280;7137;51.436;6.544;2023-02-13T06:13:31;103231.84;;;7.06;98.33
14117;BME280;7137;51.436;6.544;2023-02-13T06:16:32;103237.75;;;7.01;98.68
14117;BME280;7137;51.436;6.544;2023-02-13T06:19:34;103227.31;;;6.99;98.19
14117;BME280;7137;51.436;6.544;2023-02-13T06:22:36;103225.44;;;6.92;98.06
14117;BME280;7137;51.436;6.544;2023-02-13T06:25:38;103238.38;;;6.91;99.18
14117;BME280;7137;51.436;6.544;2023-02-13T06:28:41;103233.09;;;6.88;99.36
14117;BME280;7137;51.436;6.544;2023-02-13T06:31:43;103233.91;;;6.85;99.14
14117;BME280;7137;51.436;6.544;2023-02-13T06:34:44;103232.06;;;6.81;99.78
14117;BME280;7137;51.436;6.544;2023-02-13T06:37:46;103232.06;;;6.81;99.36
14117;BME280;7137;51.436;6.544;2023-02-13T06:40:49;103228.50;;;6.76;98.71
14117;BME280;7137;51.436;6.544;2023-02-13T06:43:52;103230.16;;;6.74;99.83
14117;BME280;7137;51.436;6.544;2023-02-13T06:46:54;103229.38;;;6.76;98.86
14117;BME280;7137;51.436;6.544;2023-02-13T06:49:55;103224.06;;;6.73;99.72
14117;BME280;7137;51.436;6.544;2023-02-13T06:52:57;103229.19;;;6.70;99.66
14117;BME280;7137;51.436;6.544;2023-02-13T06:56:02;103230.81;;;6.65;99.45
14117;BME280;7137;51.436;6.544;2023-02-13T06:59:05;103229.03;;;6.63;100.00
14117;BME280;7137;51.436;6.544;2023-02-13T07:02:08;103228.09;;;6.61;98.78
14117;BME280;7137;51.436;6.544;2023-02-13T07:05:10;103239.53;;;6.67;100.00
14117;BME280;7137;51.436;6.544;2023-02-13T07:08:12;103242.00;;;6.63;100.00
14117;BME280;7137;51.436;6.544;2023-02-13T07:11:17;103246.31;;;6.62;99.35
14117;BME280;7137;51.436;6.544;2023-02-13T07:14:20;103238.41;;;6.58;100.00
14117;BME280;7137;51.436;6.544;2023-02-13T07:17:22;103244.44;;;6.57;100.00
14117;BME280;7137;51.436;6.544;2023-02-13T07:20:24;103242.88;;;6.63;99.88
14117;BME280;7137;51.436;6.544;2023-02-13T07:23:26;103242.97;;;6.66;100.00
14117;BME280;7137;51.436;6.544;2023-02-13T07:26:27;103252.53;;;6.69;99.50
14117;BME280;7137;51.436;6.544;2023-02-13T07:29:30;103254.38;;;6.73;99.72
14117;BME280;7137;51.436;6.544;2023-02-13T07:32:31;103257.84;;;6.73;100.00
14117;BME280;7137;51.436;6.544;2023-02-13T07:35:33;103251.13;;;6.81;100.00
14117;BME280;7137;51.436;6.544;2023-02-13T07:38:35;103252.06;;;6.83;100.00
14117;BME280;7137;51.436;6.544;2023-02-13T07:41:37;103259.16;;;6.91;99.27
14117;BME280;7137;51.436;6.544;2023-02-13T07:44:39;103261.91;;;6.97;99.61
14117;BME280;7137;51.436;6.544;2023-02-13T07:47:41;103256.03;;;7.04;99.54
14117;BME280;7137;51.436;6.544;2023-02-13T07:50:43;103265.34;;;7.32;98.80
14117;BME280;7137;51.436;6.544;2023-02-13T07:53:44;103268.03;;;7.35;98.82
14117;BME280;7137;51.436;6.544;2023-02-13T07:56:46;103266.44;;;7.41;99.44
14117;BME280;7137;51.436;6.544;2023-02-13T07:59:49;103270.97;;;7.50;98.22
14117;BME280;7137;51.436;6.544;2023-02-13T08:02:51;103263.44;;;7.61;99.51
14117;BME280;7137;51.436;6.544;2023-02-13T08:05:53;103258.47;;;7.73;98.66
14117;BME280;7137;51.436;6.544;2023-02-13T08:08:54;103266.47;;;7.82;98.29
14117;BME280;7137;51.436;6.544;2023-02-13T08:12:10;103266.00;;;8.01;96.94
14117;BME280;7137;51.436;6.544;2023-02-13T08:15:13;103268.88;;;8.15;96.01
14117;BME280;7137;51.436;6.544;2023-02-13T08:18:15;103273.47;;;8.28;95.41
14117;BME280;7137;51.436;6.544;2023-02-13T08:21:17;103274.63;;;8.41;94.42
14117;BME280;7137;51.436;6.544;2023-02-13T08:24:18;103280.31;;;8.66;93.29
14117;BME280;7137;51.436;6.544;2023-02-13T08:27:20;103275.41;;;8.84;93.07
14117;BME280;7137;51.436;6.544;2023-02-13T08:30:23;103281.88;;;9.06;89.72
14117;BME280;7137;51.436;6.544;2023-02-13T08:33:25;103286.22;;;9.05;90.34
14117;BME280;7137;51.436;6.544;2023-02-13T08:36:26;103280.34;;;9.18;91.47
14117;BME280;7137;51.436;6.544;2023-02-13T08:39:28;103288.91;;;11.31;82.48
14117;BME280;7137;51.436;6.544;2023-02-13T08:42:30;103295.41;;;14.27;70.61
14117;BME280;7137;51.436;6.544;2023-02-13T08:45:33;103287.22;;;15.73;61.17
14117;BME280;7137;51.436;6.544;2023-02-13T08:48:34;103297.38;;;17.24;57.16
14117;BME280;7137;51.436;6.544;2023-02-13T08:51:36;103292.09;;;18.92;52.76
14117;BME280;7137;51.436;6.544;2023-02-13T08:54:37;103296.72;;;19.83;47.15
14117;BME280;7137;51.436;6.544;2023-02-13T08:57:39;103295.09;;;19.79;47.80
14117;BME280;7137;51.436;6.544;2023-02-13T09:00:42;103301.00;;;20.18;45.77
14117;BME280;7137;51.436;6.544;2023-02-13T09:03:43;103293.72;;;20.25;45.22
14117;BME280;7137;51.436;6.544;2023-02-13T09:06:45;103288.88;;;20.67;44.84
14117;BME280;7137;51.436;6.544;2023-02-13T09:09:46;103292.13;;;21.03;43.01
14117;BME280;7137;51.436;6.544;2023-02-13T09:12:51;103302.28;;;21.43;42.20
14117;BME280;7137;51.436;6.544;2023-02-13T09:15:57;103301.03;;;21.28;42.05
14117;BME280;7137;51.436;6.544;2023-02-13T09:18:59;103301.59;;;21.12;41.68
14117;BME280;7137;51.436;6.544;2023-02-13T09:22:02;103303.66;;;20.75;42.59
14117;BME280;7137;51.436;6.544;2023-02-13T09:25:04;103310.78;;;21.01;42.49
14117;BME280;7137;51.436;6.544;2023-02-13T09:28:06;103306.72;;;20.90;42.03
14117;BME280;7137;51.436;6.544;2023-02-13T09:31:10;103313.72;;;20.66;42.06
14117;BME280;7137;51.436;6.544;2023-02-13T09:34:14;103308.16;;;20.16;44.37
14117;BME280;7137;51.436;6.544;2023-02-13T09:37:15;103305.97;;;20.01;44.82
14117;BME280;7137;51.436;6.544;2023-02-13T09:40:21;103305.75;;;20.36;45.09
14117;BME280;7137;51.436;6.544;2023-02-13T09:43:27;103310.41;;;20.30;43.14
14117;BME280;7137;51.436;6.544;2023-02-13T09:46:34;103309.28;;;20.07;43.83
14117;BME280;7137;51.436;6.544;2023-02-13T09:49:41;103307.09;;;20.22;44.50
14117;BME280;7137;51.436;6.544;2023-02-13T09:52:45;103304.00;;;19.44;45.76
14117;BME280;7137;51.436;6.544;2023-02-13T09:55:53;103300.34;;;18.80;45.40
14117;BME280;7137;51.436;6.544;2023-02-13T09:59:00;103300.31;;;18.41;48.15
14117;BME280;7137;51.436;6.544;2023-02-13T10:02:16;103298.59;;;17.98;49.67
14117;BME280;7137;51.436;6.544;2023-02-13T10:05:42;103302.97;;;18.02;49.10
14117;BME280;7137;51.436;6.544;2023-02-13T10:09:07;103299.88;;;17.80;49.66
14117;BME280;7137;51.436;6.544;2023-02-13T10:12:19;103299.00;;;17.32;52.25
14117;BME280;7137;51.436;6.544;2023-02-13T10:15:30;103298.19;;;17.27;51.05
14117;BME280;7137;51.436;6.544;2023-02-13T10:18:46;103294.88;;;17.14;53.18
14117;BME280;7137;51.436;6.544;2023-02-13T10:21:52;103304.25;;;16.81;52.83
14117;BME280;7137;51.436;6.544;2023-02-13T10:25:02;103293.69;;;16.21;53.43
14117;BME280;7137;51.436;6.544;2023-02-13T10:28:08;103290.66;;;15.81;55.43
14117;BME280;7137;51.436;6.544;2023-02-13T10:31:14;103298.03;;;15.45;56.96
14117;BME280;7137;51.436;6.544;2023-02-13T10:34:21;103294.94;;;14.99;58.42
14117;BME280;7137;51.436;6.544;2023-02-13T10:37:27;103300.31;;;14.85;58.91
14117;BME280;7137;51.436;6.544;2023-02-13T10:40:31;103304.84;;;14.68;60.82
14117;BME280;7137;51.436;6.544;2023-02-13T10:43:38;103296.19;;;14.43;62.49
14117;BME280;7137;51.436;6.544;2023-02-13T10:46:53;103300.69;;;14.23;62.67
14117;BME280;7137;51.436;6.544;2023-02-13T10:50:08;103299.84;;;14.16;63.66
14117;BME280;7137;51.436;6.544;2023-02-13T10:53:16;103288.50;;;14.10;63.83
14117;BME280;7137;51.436;6.544;2023-02-13T10:56:25;103283.25;;;14.04;63.24
14117;BME280;7137;51.436;6.544;2023-02-13T10:59:44;103288.50;;;14.05;63.58
14117;BME280;7137;51.436;6.544;2023-02-13T11:02:48;103277.13;;;14.02;64.77
14117;BME280;7137;51.436;6.544;2023-02-13T11:05:53;103275.34;;;14.04;61.16
14117;BME280;7137;51.436;6.544;2023-02-13T11:08:55;103280.66;;;13.91;62.49
14117;BME280;7137;51.436;6.544;2023-02-13T11:11:56;103274.56;;;13.88;63.36
14117;BME280;7137;51.436;6.544;2023-02-13T11:15:01;103267.53;;;13.88;64.21
14117;BME280;7137;51.436;6.544;2023-02-13T11:18:18;103266.59;;;14.02;63.39
14117;BME280;7137;51.436;6.544;2023-02-13T11:21:32;103261.16;;;14.34;62.22
14117;BME280;7137;51.436;6.544;2023-02-13T11:24:34;103253.38;;;14.18;61.11
14117;BME280;7137;51.436;6.544;2023-02-13T11:27:38;103252.38;;;14.50;60.48
14117;BME280;7137;51.436;6.544;2023-02-13T11:30:40;103252.13;;;14.77;62.08
14117;BME280;7137;51.436;6.544;2023-02-13T11:33:41;103250.00;;;15.19;57.83
14117;BME280;7137;51.436;6.544;2023-02-13T11:36:44;103242.56;;;15.58;56.43
14117;BME280;7137;51.436;6.544;2023-02-13T11:39:47;103241.84;;;16.17;56.05
14117;BME280;7137;51.436;6.544;2023-02-13T11:42:49;103234.03;;;16.70;53.76
14117;BME280;7137;51.436;6.544;2023-02-13T11:46:02;103236.63;;;17.24;52.66
14117;BME280;7137;51.436;6.544;2023-02-13T11:49:05;103230.00;;;17.47;51.63
14117;BME280;7137;51.436;6.544;2023-02-13T11:52:22;103231.03;;;17.84;50.46
14117;BME280;7137;51.436;6.544;2023-02-13T11:55:28;103225.75;;;17.84;50.49
14117;BME280;7137;51.436;6.544;2023-02-13T11:58:30;103220.94;;;18.02;49.59
14117;BME280;7137;51.436;6.544;2023-02-13T12:01:33;103218.94;;;18.12;49.86
14117;BME280;7137;51.436;6.544;2023-02-13T12:04:34;103219.16;;;17.61;50.26
14117;BME280;7137;51.436;6.544;2023-02-13T12:07:38;103216.81;;;17.46;51.99
14117;BME280;7137;51.436;6.544;2023-02-13T12:10:41;103210.91;;;17.33;52.00
14117;BME280;7137;51.436;6.544;2023-02-13T12:13:44;103209.94;;;16.91;53.06
14117;BME280;7137;51.436;6.544;2023-02-13T12:16:47;103213.53;;;16.30;54.29
14117;BME280;7137;51.436;6.544;2023-02-13T12:19:51;103206.09;;;15.98;55.13
14117;BME280;7137;51.436;6.544;2023-02-13T12:23:02;103203.69;;;15.81;56.26
14117;BME280;7137;51.436;6.544;2023-02-13T12:26:19;103204.00;;;15.54;55.28
14117;BME280;7137;51.436;6.544;2023-02-13T12:29:41;103194.69;;;15.22;57.42
14117;BME280;7137;51.436;6.544;2023-02-13T12:32:58;103190.53;;;15.00;57.85
14117;BME280;7137;51.436;6.544;2023-02-13T12:36:08;103181.03;;;14.83;58.46
14117;BME280;7137;51.436;6.544;2023-02-13T12:39:24;103182.09;;;14.61;59.16
14117;BME280;7137;51.436;6.544;2023-02-13T12:42:36;103186.53;;;14.56;59.98
14117;BME280;7137;51.436;6.544;2023-02-13T12:45:43;103184.00;;;14.44;60.48
14117;BME280;7137;51.436;6.544;2023-02-13T12:48:51;103180.47;;;14.46;60.03
14117;BME280;7137;51.436;6.544;2023-02-13T12:52:09;103176.94;;;14.52;59.79
14117;BME280;7137;51.436;6.544;2023-02-13T12:55:48;103169.16;;;14.37;61.24
14117;BME280;7137;51.436;6.544;2023-02-13T12:59:00;103162.13;;;14.33;61.71
14117;BME280;7137;51.436;6.544;2023-02-13T13:02:37;103163.94;;;14.29;61.70
14117;BME280;7137;51.436;6.544;2023-02-13T13:06:09;103164.81;;;14.26;62.07
14117;BME280;7137;51.436;6.544;2023-02-13T13:09:47;103153.44;;;14.27;61.87
14117;BME280;7137;51.436;6.544;2023-02-13T13:13:01;103151.63;;;14.33;61.33
14117;BME280;7137;51.436;6.544;2023-02-13T13:16:13;103152.47;;;14.39;60.71
14117;BME280;7137;51.436;6.544;2023-02-13T13:19:25;103147.16;;;14.50;60.95
14117;BME280;7137;51.436;6.544;2023-02-13T13:22:32;103143.66;;;14.46;60.93
14117;BME280;7137;51.436;6.544;2023-02-13T13:25:38;103136.50;;;14.62;59.71
14117;BME280;7137;51.436;6.544;2023-02-13T13:28:46;103128.59;;;14.64;59.71
14117;BME280;7137;51.436;6.544;2023-02-13T13:31:53;103127.03;;;14.40;60.61
14117;BME280;7137;51.436;6.544;2023-02-13T13:34:56;103128.66;;;14.58;60.06
14117;BME280;7137;51.436;6.544;2023-02-13T13:38:01;103118.94;;;14.67;59.68
14117;BME280;7137;51.436;6.544;2023-02-13T13:41:13;103111.13;;;14.58;59.57
14117;BME280;7137;51.436;6.544;2023-02-13T13:44:29;103119.16;;;14.40;59.77
14117;BME280;7137;51.436;6.544;2023-02-13T13:47:53;103115.63;;;14.41;61.54
14117;BME280;7137;51.436;6.544;2023-02-13T13:50:57;103119.06;;;14.52;61.06
14117;BME280;7137;51.436;6.544;2023-02-13T13:57:57;103119.78;;;14.69;60.32
14117;BME280;7137;51.436;6.544;2023-02-13T14:01:24;103117.91;;;14.82;59.29
14117;BME280;7137;51.436;6.544;2023-02-13T14:04:37;103115.28;;;14.80;58.04
14117;BME280;7137;51.436;6.544;2023-02-13T14:07:41;103108.16;;;14.89;58.05
14117;BME280;7137;51.436;6.544;2023-02-13T14:11:00;103106.44;;;14.86;58.42
14117;BME280;7137;51.436;6.544;2023-02-13T14:17:53;103097.63;;;14.93;57.79
14117;BME280;7137;51.436;6.544;2023-02-13T14:20:58;103091.38;;;15.00;58.33
14117;BME280;7137;51.436;6.544;2023-02-13T14:24:00;103094.88;;;15.01;56.91
14117;BME280;7137;51.436;6.544;2023-02-13T14:27:03;103093.13;;;15.00;58.43
14117;BME280;7137;51.436;6.544;2023-02-13T14:30:22;103093.22;;;14.94;58.71
14117;BME280;7137;51.436;6.544;2023-02-13T14:33:29;103087.13;;;14.89;57.38
14117;BME280;7137;51.436;6.544;2023-02-13T14:36:33;103087.63;;;15.21;57.84
14117;BME280;7137;51.436;6.544;2023-02-13T14:39:36;103079.19;;;14.92;58.14
14117;BME280;7137;51.436;6.544;2023-02-13T14:42:43;103080.09;;;14.89;58.02
14117;BME280;7137;51.436;6.544;2023-02-13T14:45:48;103069.56;;;14.92;58.25
14117;BME280;7137;51.436;6.544;2023-02-13T14:48:56;103072.00;;;15.06;58.34
14117;BME280;7137;51.436;6.544;2023-02-13T14:52:02;103072.06;;;15.00;57.75
14117;BME280;7137;51.436;6.544;2023-02-13T14:55:11;103070.41;;;14.94;58.12
14117;BME280;7137;51.436;6.544;2023-02-13T14:58:19;103075.41;;;15.14;57.02
14117;BME280;7137;51.436;6.544;2023-02-13T15:01:27;103071.13;;;15.05;57.63
14117;BME280;7137;51.436;6.544;2023-02-13T15:04:37;103067.63;;;15.03;56.38
14117;BME280;7137;51.436;6.544;2023-02-13T15:07:45;103059.75;;;15.03;57.22
14117;BME280;7137;51.436;6.544;2023-02-13T15:10:50;103058.91;;;15.00;57.33
14117;BME280;7137;51.436;6.544;2023-02-13T15:13:52;103063.38;;;14.95;57.74
14117;BME280;7137;51.436;6.544;2023-02-13T15:16:56;103055.47;;;14.96;57.14
14117;BME280;7137;51.436;6.544;2023-02-13T15:20:06;103059.06;;;14.88;56.76
14117;BME280;7137;51.436;6.544;2023-02-13T15:23:18;103065.38;;;14.71;57.97
14117;BME280;7137;51.436;6.544;2023-02-13T15:26:22;103063.69;;;14.67;57.72
14117;BME280;7137;51.436;6.544;2023-02-13T15:29:28;103064.59;;;14.62;58.43
14117;BME280;7137;51.436;6.544;2023-02-13T15:32:32;103062.91;;;14.56;58.56
14117;BME280;7137;51.436;6.544;2023-02-13T15:35:35;103063.84;;;14.52;58.51
14117;BME280;7137;51.436;6.544;2023-02-13T15:38:37;103063.00;;;14.45;58.92
14117;BME280;7137;51.436;6.544;2023-02-13T15:41:41;103063.03;;;14.41;58.93
14117;BME280;7137;51.436;6.544;2023-02-13T15:44:45;103067.56;;;14.25;59.50
14117;BME280;7137;51.436;6.544;2023-02-13T15:47:48;103072.00;;;14.17;60.09
14117;BME280;7137;51.436;6.544;2023-02-13T15:50:51;103069.41;;;14.12;60.20
14117;BME280;7137;51.436;6.544;2023-02-13T15:53:54;103057.19;;;14.07;59.92
14117;BME280;7137;51.436;6.544;2023-02-13T15:56:59;103057.25;;;13.99;59.38
14117;BME280;7137;51.436;6.544;2023-02-13T16:00:02;103054.69;;;13.94;60.08
14117;BME280;7137;51.436;6.544;2023-02-13T16:03:06;103044.25;;;13.84;60.02
14117;BME280;7137;51.436;6.544;2023-02-13T16:06:16;103046.91;;;13.78;59.52
14117;BME280;7137;51.436;6.544;2023-02-13T16:09:25;103044.34;;;13.70;61.34
14117;BME280;7137;51.436;6.544;2023-02-13T16:12:27;103039.13;;;13.62;60.59
14117;BME280;7137;51.436;6.544;2023-02-13T16:15:31;103036.59;;;13.52;60.76
14117;BME280;7137;51.436;6.544;2023-02-13T16:18:33;103040.97;;;13.48;62.19
14117;BME280;7137;51.436;6.544;2023-02-13T16:21:37;103040.13;;;13.42;61.11
14117;BME280;7137;51.436;6.544;2023-02-13T16:24:38;103036.69;;;13.30;62.40
14117;BME280;7137;51.436;6.544;2023-02-13T16:27:42;103040.25;;;13.20;63.36
14117;BME280;7137;51.436;6.544;2023-02-13T16:30:46;103042.88;;;13.08;62.64
14117;BME280;7137;51.436;6.544;2023-02-13T16:33:51;103046.44;;;12.95;63.28
14117;BME280;7137;51.436;6.544;2023-02-13T16:36:54;103037.75;;;12.79;65.28
14117;BME280;7137;51.436;6.544;2023-02-13T16:39:56;103040.41;;;12.65;66.49
14117;BME280;7137;51.436;6.544;2023-02-13T16:46:42;103038.72;;;12.40;66.63
14117;BME280;7137;51.436;6.544;2023-02-13T16:49:51;103038.69;;;12.38;67.21